Time;durP1;ratioP1;P1;durP2;ratioP2;P2;SDS_P1;SDS_P2;PMS_P1;PMS_P2;Temp;Humidity;BMP_temperature;BMP_pressure;BME280_temperature;BME280_humidity;BME280_pressure;Samples;Min_cycle;Max_cycle;Signal;HPM_P1;HPM_P2
2021/03/30 00:01:31;;;;;;;15.50;7.30;;;;;;;9.37;66.36;102569.16;4987671;28;20088;-71
2021/03/30 00:03:56;;;;;;;19.45;6.70;;;;;;;9.30;66.36;102564.00;4997244;28;20170;-71
2021/03/30 00:06:21;;;;;;;18.83;7.20;;;;;;;9.23;66.99;102574.94;4984152;28;20441;-71
2021/03/30 00:08:47;;;;;;;16.85;7.80;;;;;;;9.14;67.56;102561.78;4978847;28;20041;-71
2021/03/30 00:11:12;;;;;;;18.15;7.55;;;;;;;9.04;67.87;102560.28;4995352;28;20097;-71
2021/03/30 00:13:38;;;;;;;20.88;6.82;;;;;;;8.97;68.15;102569.44;4983024;28;20029;-71
2021/03/30 00:16:04;;;;;;;14.18;7.80;;;;;;;8.92;68.50;102573.13;4999706;28;20045;-71
2021/03/30 00:18:29;;;;;;;17.27;7.82;;;;;;;8.93;68.79;102564.16;4981723;28;20042;-71
2021/03/30 00:20:55;;;;;;;25.15;8.30;;;;;;;8.97;68.63;102569.44;4999750;28;20034;-72
2021/03/30 00:23:20;;;;;;;14.38;7.68;;;;;;;8.99;68.71;102570.28;4984151;28;20034;-71
2021/03/30 00:25:46;;;;;;;15.68;8.30;;;;;;;9.01;68.52;102563.09;4998318;28;20133;-71
2021/03/30 00:28:11;;;;;;;17.02;7.50;;;;;;;9.05;68.70;102562.06;4977333;28;20035;-71
2021/03/30 00:30:37;;;;;;;17.23;8.00;;;;;;;9.06;68.49;102561.16;4980823;28;20133;-71
2021/03/30 00:33:03;;;;;;;18.17;8.27;;;;;;;9.06;68.52;102564.69;4977695;28;20027;-71
2021/03/30 00:35:28;;;;;;;17.90;7.57;;;;;;;9.05;68.46;102562.06;4983740;28;20538;-71
2021/03/30 00:37:54;;;;;;;18.02;8.57;;;;;;;9.04;68.73;102560.28;4986972;28;20042;-71
2021/03/30 00:40:19;;;;;;;18.67;7.55;;;;;;;9.03;68.86;102558.53;4977380;28;20062;-71
2021/03/30 00:42:45;;;;;;;18.77;8.55;;;;;;;9.00;69.10;102558.63;4995190;28;20042;-71
2021/03/30 00:45:12;;;;;;;21.40;8.38;;;;;;;8.98;69.33;102555.13;4984741;28;20173;-71
2021/03/30 00:47:46;;;;;;;18.50;8.50;;;;;;;8.93;69.40;102558.81;4986034;28;20030;-71
2021/03/30 00:50:15;;;;;;;15.82;7.70;;;;;;;8.93;69.58;102569.53;4983041;28;20027;-71
2021/03/30 00:52:42;;;;;;;15.32;7.85;;;;;;;8.88;69.91;102560.75;4985257;28;20061;-71
2021/03/30 00:55:34;;;;;;;16.80;7.43;;;;;;;8.81;70.32;102563.63;4982596;28;20058;-71
2021/03/30 00:57:59;;;;;;;17.90;8.00;;;;;;;8.75;70.55;102555.78;4976997;28;20114;-71
2021/03/30 01:00:24;;;;;;;16.30;7.88;;;;;;;8.73;70.81;102557.59;4981987;28;20534;-71
2021/03/30 01:02:50;;;;;;;18.08;8.65;;;;;;;8.69;71.10;102564.84;4983677;28;20061;-71
2021/03/30 01:05:16;;;;;;;15.65;8.07;;;;;;;8.67;71.34;102561.31;4978590;28;20514;-71
2021/03/30 01:08:18;;;;;;;15.60;7.75;;;;;;;8.53;71.57;102558.13;4974612;28;20696;-71
2021/03/30 01:10:54;;;;;;;26.63;9.13;;;;;;;8.44;71.72;102558.38;4995615;28;20219;-71
2021/03/30 01:13:57;;;;;;;16.77;8.13;;;;;;;8.32;72.45;102553.34;4983058;28;20038;-71
2021/03/30 01:16:31;;;;;;;16.17;8.40;;;;;;;8.26;72.71;102558.84;4979676;28;20030;-71
2021/03/30 01:19:12;;;;;;;14.95;7.72;;;;;;;8.25;72.94;102562.41;4982558;28;20030;-71
2021/03/30 01:21:52;;;;;;;17.35;8.25;;;;;;;8.21;73.06;102560.75;4986647;28;20057;-71
2021/03/30 01:24:30;;;;;;;23.95;8.43;;;;;;;8.15;73.44;102555.56;4979217;28;20040;-71
2021/03/30 01:27:02;;;;;;;13.70;7.22;;;;;;;8.07;73.75;102553.94;4983247;28;20118;-71
2021/03/30 01:29:40;;;;;;;18.95;8.45;;;;;;;8.01;74.19;102554.09;4985995;28;20034;-71
2021/03/30 01:32:14;;;;;;;13.02;7.40;;;;;;;7.93;74.25;102556.06;4978921;28;20037;-71
2021/03/30 01:34:43;;;;;;;20.67;8.82;;;;;;;7.80;74.50;102549.25;4984146;28;20038;-71
2021/03/30 01:37:10;;;;;;;18.15;7.55;;;;;;;7.72;75.03;102544.06;4981650;28;20041;-71
2021/03/30 01:39:38;;;;;;;18.30;8.70;;;;;;;7.62;75.81;102544.34;4989102;28;20023;-71
2021/03/30 01:42:06;;;;;;;30.50;9.18;;;;;;;7.60;76.14;102548.81;4986408;28;20034;-70
2021/03/30 01:44:32;;;;;;;18.48;7.82;;;;;;;7.60;76.47;102548.81;4989857;28;20399;-71
2021/03/30 01:47:00;;;;;;;27.15;7.65;;;;;;;7.56;76.78;102552.50;4981237;28;20090;-71
2021/03/30 01:49:28;;;;;;;18.42;9.20;;;;;;;7.58;76.76;102548.00;4985263;28;20037;-71
2021/03/30 01:51:55;;;;;;;24.75;8.25;;;;;;;7.55;76.95;102538.25;4989638;28;20651;-71
2021/03/30 01:54:22;;;;;;;16.52;8.00;;;;;;;7.54;76.93;102549.84;4996980;28;20030;-71
2021/03/30 01:56:50;;;;;;;19.35;9.57;;;;;;;7.52;77.03;102543.69;4981973;28;20437;-71
2021/03/30 01:59:18;;;;;;;20.13;8.48;;;;;;;7.52;76.93;102538.34;4990311;28;20518;-71
2021/03/30 02:01:45;;;;;;;19.17;8.82;;;;;;;7.49;76.84;102535.72;4978795;28;20027;-71
2021/03/30 02:04:12;;;;;;;16.10;7.97;;;;;;;7.46;76.93;102541.16;4984711;28;20085;-71
2021/03/30 02:06:41;;;;;;;17.40;8.35;;;;;;;7.40;77.27;102532.38;4987955;28;20039;-71
2021/03/30 02:09:13;;;;;;;17.90;8.50;;;;;;;7.37;77.30;102548.47;4987214;28;20030;-71
2021/03/30 02:11:49;;;;;;;18.15;8.65;;;;;;;7.32;77.53;102541.44;4978982;28;20062;-71
2021/03/30 02:14:15;;;;;;;16.67;7.75;;;;;;;7.25;77.65;102542.47;4978523;28;20560;-71
2021/03/30 02:17:02;;;;;;;22.90;8.27;;;;;;;7.20;77.94;102546.16;4983531;28;20041;-71
2021/03/30 02:19:42;;;;;;;17.45;7.47;;;;;;;7.18;77.91;102546.19;4988359;28;20525;-70
2021/03/30 02:22:18;;;;;;;18.27;8.15;;;;;;;7.05;78.53;102536.69;4988086;28;20471;-71
2021/03/30 02:24:44;;;;;;;18.10;7.88;;;;;;;6.98;78.96;102545.72;4981410;28;20505;-71
2021/03/30 02:27:11;;;;;;;19.20;8.10;;;;;;;6.98;79.18;102545.72;4982156;28;20031;-71
2021/03/30 02:29:38;;;;;;;21.35;7.40;;;;;;;7.02;79.32;102542.09;4987388;28;20038;-71
2021/03/30 02:32:07;;;;;;;20.45;8.45;;;;;;;7.04;79.13;102540.25;4987767;28;20031;-70
2021/03/30 02:34:34;;;;;;;21.65;8.43;;;;;;;7.06;79.28;102540.22;4985316;28;20026;-71
2021/03/30 02:37:01;;;;;;;18.98;8.38;;;;;;;7.04;79.26;102544.72;4982738;28;20174;-70
2021/03/30 02:39:28;;;;;;;17.17;7.13;;;;;;;6.99;79.37;102552.81;4982365;28;20114;-70
2021/03/30 02:41:56;;;;;;;23.50;7.60;;;;;;;6.94;79.00;102549.38;4988391;28;20030;-71
2021/03/30 02:44:23;;;;;;;18.35;8.75;;;;;;;6.91;78.99;102554.78;4983917;28;20487;-71
2021/03/30 02:46:49;;;;;;;17.48;8.18;;;;;;;6.88;79.11;102545.03;4986446;28;20121;-71
2021/03/30 02:49:18;;;;;;;15.45;8.55;;;;;;;6.86;79.10;102535.28;4983499;28;20038;-71
2021/03/30 02:51:46;;;;;;;21.38;8.85;;;;;;;6.78;79.37;102547.94;4986467;28;20728;-71
2021/03/30 02:54:13;;;;;;;16.17;7.70;;;;;;;6.71;79.61;102546.28;4984138;28;20296;-70
2021/03/30 02:56:39;;;;;;;26.75;7.88;;;;;;;6.69;80.02;102542.75;4981911;28;20027;-70
2021/03/30 02:59:05;;;;;;;19.92;8.40;;;;;;;6.66;80.33;102538.38;4984592;28;20665;-70
2021/03/30 03:01:32;;;;;;;22.98;7.80;;;;;;;6.67;80.00;102539.22;4982361;28;20026;-70
2021/03/30 03:04:02;;;;;;;18.40;8.52;;;;;;;6.68;80.13;102532.97;4986942;28;20085;-70
2021/03/30 03:06:29;;;;;;;24.00;7.32;;;;;;;6.69;80.25;102534.75;5000739;28;20566;-70
2021/03/30 03:08:56;;;;;;;34.25;9.25;;;;;;;6.68;80.26;102535.66;4983452;28;20113;-70
2021/03/30 03:11:22;;;;;;;21.50;8.88;;;;;;;6.67;80.27;102541.88;4984883;28;20023;-70
2021/03/30 03:13:50;;;;;;;15.50;7.93;;;;;;;6.64;80.34;102541.97;4977408;28;20042;-70
2021/03/30 03:16:20;;;;;;;18.55;7.00;;;;;;;6.62;80.41;102547.31;4980933;28;20121;-70
2021/03/30 03:18:46;;;;;;;19.50;8.00;;;;;;;6.57;80.69;102546.53;4983472;28;20589;-70
2021/03/30 03:21:12;;;;;;;19.00;8.48;;;;;;;6.55;80.65;102544.78;4978960;28;20505;-70
2021/03/30 03:23:39;;;;;;;15.02;7.53;;;;;;;6.52;80.73;102550.19;4975776;28;20046;-70
2021/03/30 03:26:06;;;;;;;22.15;9.02;;;;;;;6.51;80.75;102543.97;4982253;28;20138;-70
2021/03/30 03:28:32;;;;;;;20.20;7.75;;;;;;;6.50;80.72;102553.78;4982034;28;20041;-71
2021/03/30 03:30:58;;;;;;;17.38;7.40;;;;;;;6.48;80.80;102555.56;4981748;28;20494;-70
2021/03/30 03:33:23;;;;;;;16.48;7.50;;;;;;;6.46;80.66;102552.06;4982579;28;20058;-70
2021/03/30 03:36:11;;;;;;;21.00;7.63;;;;;;;6.46;80.90;102551.19;4982232;28;20117;-70
2021/03/30 03:38:42;;;;;;;14.52;7.90;;;;;;;6.41;80.99;102548.63;4985656;28;20034;-70
2021/03/30 03:41:10;;;;;;;15.77;7.30;;;;;;;6.30;80.96;102547.91;4984746;28;20068;-70
2021/03/30 03:43:36;;;;;;;18.42;7.45;;;;;;;6.24;81.30;102539.13;4981599;28;20039;-70
2021/03/30 03:46:02;;;;;;;17.60;7.85;;;;;;;6.23;81.38;102543.59;4974141;28;20089;-71
2021/03/30 03:48:27;;;;;;;25.90;7.90;;;;;;;6.16;81.66;102541.06;4980645;28;20088;-70
2021/03/30 03:50:57;;;;;;;18.48;7.93;;;;;;;6.13;82.04;102541.09;4979936;28;20081;-70
2021/03/30 03:53:26;;;;;;;22.98;7.57;;;;;;;6.13;81.99;102541.97;4985977;28;20553;-70
2021/03/30 03:55:54;;;;;;;18.45;7.70;;;;;;;6.13;82.03;102547.31;4979272;28;20058;-70
2021/03/30 03:58:33;;;;;;;20.92;7.15;;;;;;;6.13;82.19;102543.75;4983045;28;20594;-70
2021/03/30 04:01:00;;;;;;;17.60;7.15;;;;;;;6.12;82.24;102545.53;4983742;28;20061;-70
2021/03/30 04:03:33;;;;;;;16.83;7.07;;;;;;;6.12;82.12;102550.88;4982926;28;20038;-70
2021/03/30 04:06:09;;;;;;;16.75;6.70;;;;;;;6.11;82.35;102550.94;4981349;28;20046;-70
2021/03/30 04:08:39;;;;;;;17.55;7.00;;;;;;;6.08;82.58;102549.19;4982564;28;20030;-70
2021/03/30 04:11:05;;;;;;;19.70;7.70;;;;;;;6.06;82.58;102545.66;4982249;28;20038;-70
2021/03/30 04:13:32;;;;;;;16.50;6.57;;;;;;;6.06;82.77;102553.66;5002136;28;20038;-70
2021/03/30 04:16:03;;;;;;;19.42;6.60;;;;;;;6.02;82.79;102544.84;5001019;28;20043;-70
2021/03/30 04:18:30;;;;;;;17.15;7.10;;;;;;;5.99;82.99;102549.31;4985494;28;20038;-70
2021/03/30 04:20:56;;;;;;;17.88;7.03;;;;;;;5.92;83.21;102542.34;4979474;28;20041;-70
2021/03/30 04:23:24;;;;;;;18.40;7.47;;;;;;;5.84;83.21;102545.09;4977422;28;20042;-70
2021/03/30 04:25:50;;;;;;;21.50;7.03;;;;;;;5.81;83.52;102554.91;4979096;28;20046;-70
2021/03/30 04:28:16;;;;;;;15.75;7.88;;;;;;;5.76;83.58;102547.00;4978120;28;20065;-70
2021/03/30 04:30:42;;;;;;;18.65;6.70;;;;;;;5.74;83.73;102553.28;4983580;28;20120;-70
2021/03/30 04:33:07;;;;;;;15.05;6.60;;;;;;;5.73;83.73;102551.50;4984583;28;20458;-70
2021/03/30 04:35:33;;;;;;;15.43;6.88;;;;;;;5.72;83.90;102552.41;4985421;28;20030;-70
2021/03/30 04:37:58;;;;;;;19.00;6.80;;;;;;;5.70;83.96;102547.09;4980827;28;20489;-70
2021/03/30 04:40:24;;;;;;;19.23;7.32;;;;;;;5.69;83.74;102548.88;4982165;28;20233;-70
2021/03/30 04:42:49;;;;;;;17.42;7.15;;;;;;;5.67;83.87;102553.34;4978638;28;20034;-70
2021/03/30 04:45:15;;;;;;;16.52;7.03;;;;;;;5.67;83.68;102557.81;4979801;28;20053;-70
2021/03/30 04:47:40;;;;;;;14.25;7.07;;;;;;;5.62;83.99;102560.50;4981083;28;20041;-70
2021/03/30 04:50:07;;;;;;;13.32;6.43;;;;;;;5.56;84.00;102565.03;4996062;28;20109;-70
2021/03/30 04:52:32;;;;;;;15.50;6.47;;;;;;;5.48;84.29;102562.50;5002416;28;20077;-70
2021/03/30 04:54:58;;;;;;;13.90;6.50;;;;;;;5.46;84.56;102564.31;4974242;28;20038;-70
2021/03/30 04:57:23;;;;;;;18.27;7.15;;;;;;;5.45;84.82;102570.53;4979340;28;20045;-70
2021/03/30 04:59:49;;;;;;;13.38;6.78;;;;;;;5.43;85.01;102571.47;4985828;28;20060;-70
2021/03/30 05:02:14;;;;;;;17.02;8.00;;;;;;;5.41;85.08;102570.59;4985476;28;20129;-70
2021/03/30 05:04:39;;;;;;;17.05;7.05;;;;;;;5.40;85.27;102571.50;4980780;28;20565;-70
2021/03/30 05:07:05;;;;;;;18.70;7.05;;;;;;;5.39;85.37;102577.72;4978894;28;20282;-70
2021/03/30 05:09:30;;;;;;;16.58;7.57;;;;;;;5.39;85.28;102573.28;4975260;28;20073;-70
2021/03/30 05:11:56;;;;;;;19.77;7.78;;;;;;;5.39;85.29;102569.72;4986729;28;20038;-70
2021/03/30 05:14:21;;;;;;;16.80;7.15;;;;;;;5.37;85.41;102583.06;4982346;28;20038;-70
2021/03/30 05:16:47;;;;;;;17.33;6.35;;;;;;;5.34;85.50;102587.56;4976715;28;20038;-70
2021/03/30 05:19:13;;;;;;;14.52;6.95;;;;;;;5.30;85.54;102592.06;4985099;28;20037;-70
2021/03/30 05:21:38;;;;;;;16.90;6.72;;;;;;;5.28;85.68;102594.72;4983559;28;20046;-70
2021/03/30 05:24:04;;;;;;;22.27;7.28;;;;;;;5.26;85.88;102588.53;4978440;28;20038;-70
2021/03/30 05:26:30;;;;;;;21.15;7.90;;;;;;;5.27;85.45;102594.75;4984632;28;20065;-70
2021/03/30 05:28:55;;;;;;;19.25;6.93;;;;;;;5.25;85.54;102596.53;4980572;28;20124;-70
2021/03/30 05:31:20;;;;;;;15.13;6.82;;;;;;;5.19;85.67;102602.81;4984606;28;20202;-70
2021/03/30 05:33:46;;;;;;;17.10;7.20;;;;;;;5.14;86.00;102606.44;4984779;28;20049;-70
2021/03/30 05:36:11;;;;;;;18.67;7.57;;;;;;;5.10;86.00;102608.25;4974840;28;20077;-70
2021/03/30 05:38:37;;;;;;;19.90;7.05;;;;;;;5.08;86.32;102609.16;4995887;28;20669;-70
2021/03/30 05:41:03;;;;;;;23.38;7.70;;;;;;;5.09;86.49;102614.47;4978704;28;20039;-70
2021/03/30 05:43:29;;;;;;;20.52;7.50;;;;;;;5.11;86.39;102611.81;4996767;28;20030;-70
2021/03/30 05:46:00;;;;;;;14.80;6.75;;;;;;;5.13;86.62;102618.84;4985966;28;20034;-70
2021/03/30 05:48:29;;;;;;;18.90;7.75;;;;;;;5.16;86.65;102612.63;4979792;28;20042;-71
2021/03/30 05:50:56;;;;;;;14.40;7.00;;;;;;;5.19;86.70;102607.25;4997655;28;20038;-71
2021/03/30 05:53:23;;;;;;;15.05;7.03;;;;;;;5.21;86.66;102614.34;4982094;28;21063;-71
2021/03/30 05:55:53;;;;;;;17.85;6.82;;;;;;;5.21;86.69;102616.13;4980120;28;20030;-71
2021/03/30 05:58:20;;;;;;;17.17;7.18;;;;;;;5.23;86.72;102612.53;4982302;28;20449;-71
2021/03/30 06:00:46;;;;;;;14.00;7.65;;;;;;;5.24;86.89;102616.09;4979903;28;20053;-71
2021/03/30 06:03:21;;;;;;;17.48;7.60;;;;;;;5.26;86.97;102619.59;4963751;28;20517;-70
2021/03/30 06:05:51;;;;;;;19.50;7.45;;;;;;;5.29;87.06;102625.78;4973648;28;20046;-71
2021/03/30 06:08:20;;;;;;;18.98;7.75;;;;;;;5.33;87.60;102623.06;4994073;28;20038;-71
2021/03/30 06:10:47;;;;;;;15.15;6.82;;;;;;;5.31;88.00;102628.41;5000090;28;20509;-72
2021/03/30 06:13:12;;;;;;;16.80;7.25;;;;;;;5.35;88.37;102613.28;4983601;28;20648;-70
2021/03/30 06:15:37;;;;;;;18.30;7.60;;;;;;;5.37;88.46;102623.00;4976609;28;20029;-71
2021/03/30 06:18:18;;;;;;;17.40;7.15;;;;;;;5.42;88.43;102630.97;4980943;28;20033;-72
2021/03/30 06:20:44;;;;;;;16.25;7.38;;;;;;;5.49;89.04;102630.84;4980670;28;20100;-71
2021/03/30 06:23:09;;;;;;;21.25;7.80;;;;;;;5.52;89.85;102629.94;4979365;28;20034;-71
2021/03/30 06:25:35;;;;;;;21.80;8.45;;;;;;;5.55;90.08;102627.25;4996417;28;20030;-71
2021/03/30 06:28:14;;;;;;;18.30;6.88;;;;;;;5.61;90.18;102638.69;4981711;28;20030;-70
2021/03/30 06:30:54;;;;;;;16.05;7.88;;;;;;;5.73;90.43;102636.75;4981596;28;20398;-71
2021/03/30 06:33:20;;;;;;;26.27;8.80;;;;;;;5.90;90.80;102635.66;4981440;28;20045;-71
2021/03/30 06:35:45;;;;;;;20.15;8.50;;;;;;;6.06;90.49;102638.97;4985289;28;20034;-71
2021/03/30 06:38:11;;;;;;;35.42;8.75;;;;;;;6.26;90.34;102639.53;4987368;28;20038;-71
2021/03/30 06:40:39;;;;;;;26.58;8.02;;;;;;;6.47;89.52;102638.31;4985323;28;20031;-71
2021/03/30 06:46:05;;;;;;;18.42;6.75;;;;;;;6.98;87.48;102647.19;4980326;28;20085;-71
2021/03/30 06:48:31;;;;;;;25.90;8.35;;;;;;;7.27;86.14;102650.19;4981232;28;20027;-72
2021/03/30 06:51:14;;;;;;;18.83;7.35;;;;;;;7.81;83.01;102652.59;4986526;28;20719;-72
2021/03/30 06:53:40;;;;;;;17.13;6.63;;;;;;;8.50;80.83;102654.59;4985531;28;20072;-71
2021/03/30 06:56:05;;;;;;;14.70;6.68;;;;;;;9.41;75.42;102657.47;5000203;28;20026;-71
2021/03/30 06:58:54;;;;;;;16.45;7.10;;;;;;;10.44;69.38;102662.34;4980171;28;20086;-71
2021/03/30 07:01:20;;;;;;;19.25;6.40;;;;;;;11.34;66.44;102668.16;4976158;28;20038;-71
2021/03/30 07:03:46;;;;;;;18.17;7.22;;;;;;;12.06;62.43;102666.31;4986122;28;20411;-71
2021/03/30 07:06:13;;;;;;;17.98;7.80;;;;;;;12.63;58.88;102662.19;4985720;28;20031;-72
2021/03/30 07:08:39;;;;;;;15.98;7.00;;;;;;;13.21;58.13;102667.78;4979653;28;20484;-72
2021/03/30 07:11:05;;;;;;;15.60;5.95;;;;;;;13.72;56.56;102670.84;4987157;28;20068;-72
2021/03/30 07:13:30;;;;;;;16.45;7.15;;;;;;;13.96;53.62;102674.19;4981741;28;20026;-72
2021/03/30 07:16:08;;;;;;;11.95;5.65;;;;;;;14.19;52.50;102667.72;4980821;28;20180;-71
2021/03/30 07:18:41;;;;;;;20.92;6.45;;;;;;;14.32;52.48;102668.84;4982758;28;20112;-72
2021/03/30 07:21:22;;;;;;;12.88;6.28;;;;;;;14.77;50.90;102670.25;4988716;28;20065;-72
2021/03/30 07:23:53;;;;;;;15.25;5.57;;;;;;;15.15;49.45;102681.78;4981443;28;20066;-72
2021/03/30 07:26:24;;;;;;;10.43;5.28;;;;;;;15.50;47.45;102688.03;4978098;28;20129;-72
2021/03/30 07:28:57;;;;;;;16.38;5.20;;;;;;;15.66;48.63;102689.00;4986352;28;20479;-73
2021/03/30 07:31:28;;;;;;;;;;;;;;;15.62;48.58;102690.09;4981060;28;20085;-72
2021/03/30 07:34:05;;;;;;;14.73;4.95;;;;;;;15.91;46.14;102684.00;4979626;28;19914;-72
2021/03/30 07:36:39;;;;;;;12.23;5.43;;;;;;;16.26;44.97;102697.38;4977536;28;20407;-72
2021/03/30 07:39:06;;;;;;;22.70;5.90;;;;;;;16.71;46.46;102689.34;4979039;28;20038;-72
2021/03/30 07:41:32;;;;;;;14.32;4.95;;;;;;;16.55;43.18;102683.00;4978387;28;20546;-72
2021/03/30 07:44:01;;;;;;;13.80;4.95;;;;;;;16.57;44.15;102694.66;4986505;28;20101;-72
2021/03/30 07:46:29;;;;;;;12.27;5.32;;;;;;;16.69;43.60;102687.69;4982550;28;20062;-72
2021/03/30 07:48:55;;;;;;;12.98;5.40;;;;;;;16.54;43.01;102689.44;4976981;28;20096;-72
2021/03/30 07:51:23;;;;;;;12.32;5.32;;;;;;;16.14;43.94;102691.69;4979909;28;20065;-72
2021/03/30 07:53:54;;;;;;;10.73;5.35;;;;;;;16.46;43.59;102692.56;4978049;28;20129;-72
2021/03/30 07:56:25;;;;;;;14.18;5.32;;;;;;;16.65;43.23;102692.41;4974544;28;20034;-72
2021/03/30 07:58:53;;;;;;;10.48;5.10;;;;;;;16.74;42.71;102694.56;4993592;28;20128;-72
2021/03/30 08:01:20;;;;;;;11.75;6.13;;;;;;;16.81;42.50;102690.53;4986097;28;20031;-72
2021/03/30 08:03:48;;;;;;;14.88;5.88;;;;;;;17.21;42.29;102688.16;4983147;28;20069;-72
2021/03/30 08:06:27;;;;;;;18.80;5.97;;;;;;;17.43;42.22;102690.41;4978062;28;20077;-72
2021/03/30 08:09:13;;;;;;;16.27;5.65;;;;;;;17.73;40.84;102694.84;4980687;28;20044;-72
2021/03/30 08:11:39;;;;;;;16.20;6.45;;;;;;;17.81;40.71;102701.63;4984173;28;20030;-72
2021/03/30 08:14:07;;;;;;;14.48;5.28;;;;;;;18.33;39.86;102694.56;4998176;28;20454;-73
2021/03/30 08:16:35;;;;;;;18.70;5.70;;;;;;;18.36;39.72;102691.66;4977959;28;20035;-72
2021/03/30 08:19:04;;;;;;;13.27;5.68;;;;;;;18.13;39.66;102693.19;4985343;28;20069;-73
2021/03/30 08:22:06;;;;;;;17.95;5.50;;;;;;;18.21;40.47;102689.09;4979734;28;20057;-72
2021/03/30 08:24:40;;;;;;;9.65;5.00;;;;;;;18.08;40.20;102689.00;4977860;28;20121;-72
2021/03/30 08:27:31;;;;;;;15.05;5.43;;;;;;;18.46;40.16;102689.19;4998874;28;20376;-72
2021/03/30 08:30:02;;;;;;;14.07;4.75;;;;;;;18.57;40.29;102693.00;4996768;28;20045;-73
2021/03/30 08:32:31;;;;;;;16.00;6.30;;;;;;;18.88;40.71;102696.38;4981370;28;20462;-73
2021/03/30 08:34:57;;;;;;;12.82;5.32;;;;;;;18.92;39.49;102692.47;4983842;28;20072;-73
2021/03/30 08:37:23;;;;;;;10.27;5.03;;;;;;;19.02;38.11;102696.28;4982144;28;20053;-73
2021/03/30 08:39:49;;;;;;;11.43;5.28;;;;;;;19.34;39.62;102694.06;4993297;28;20062;-72
2021/03/30 08:42:20;;;;;;;9.77;4.70;;;;;;;19.85;38.68;102700.44;5003537;28;20519;-73
2021/03/30 08:44:58;;;;;;;9.63;5.45;;;;;;;19.91;36.89;102704.56;4984760;28;20406;-72
2021/03/30 08:47:45;;;;;;;14.68;4.90;;;;;;;19.73;36.88;102706.75;4987453;28;20026;-72
2021/03/30 08:50:22;;;;;;;29.85;6.97;;;;;;;19.74;36.92;102700.34;4988311;28;20098;-73
2021/03/30 08:52:48;;;;;;;12.20;5.15;;;;;;;19.99;37.20;102708.50;4998177;28;20030;-73
2021/03/30 08:55:14;;;;;;;16.65;6.95;;;;;;;19.75;37.71;102710.22;4998599;28;20120;-73
2021/03/30 08:57:49;;;;;;;10.77;5.18;;;;;;;20.22;37.60;102708.66;4981419;28;20172;-73
2021/03/30 09:00:15;;;;;;;14.85;5.88;;;;;;;20.28;36.54;102705.47;4998578;28;20069;-73
2021/03/30 09:02:42;;;;;;;13.85;6.70;;;;;;;19.92;37.23;102704.47;4988357;28;20403;-73
2021/03/30 09:05:19;;;;;;;13.35;4.93;;;;;;;20.14;38.01;102704.63;4983029;28;20118;-72
2021/03/30 09:07:46;;;;;;;12.05;6.25;;;;;;;20.35;36.33;102699.50;4981647;28;20112;-73
2021/03/30 09:10:12;;;;;;;25.70;6.28;;;;;;;20.25;36.21;102698.38;4983513;28;20074;-73
2021/03/30 09:12:38;;;;;;;18.75;7.40;;;;;;;20.38;36.88;102698.38;4985743;28;20038;-73
2021/03/30 09:15:06;;;;;;;17.15;7.70;;;;;;;20.49;36.49;102702.03;4986345;28;20027;-72
2021/03/30 09:17:32;;;;;;;12.40;5.60;;;;;;;20.69;36.60;102703.28;4987697;28;20022;-72
2021/03/30 09:20:00;;;;;;;14.02;6.28;;;;;;;20.62;36.47;102696.53;4984875;28;20491;-73
2021/03/30 09:22:30;;;;;;;13.15;5.80;;;;;;;20.83;36.60;102700.38;4982167;28;20019;-73
2021/03/30 09:27:30;;;;;;;15.43;7.10;;;;;;;20.96;37.54;102694.84;4979767;28;20030;-73
2021/03/30 09:29:57;;;;;;;18.50;8.57;;;;;;;21.03;34.47;102704.31;4985682;28;20038;-73
2021/03/30 09:32:25;;;;;;;18.00;7.65;;;;;;;21.12;35.88;102694.53;4988438;28;20030;-73
2021/03/30 09:34:51;;;;;;;26.77;8.98;;;;;;;21.27;34.38;102699.72;4999227;28;20498;-73
2021/03/30 09:37:16;;;;;;;28.27;10.98;;;;;;;21.10;31.08;102691.06;4986519;28;20081;-72
2021/03/30 09:39:43;;;;;;;25.83;10.20;;;;;;;20.92;32.75;102699.66;4984725;28;20085;-73
2021/03/30 09:42:09;;;;;;;24.55;11.00;;;;;;;20.93;32.81;102685.03;4985578;28;20081;-73
2021/03/30 09:44:40;;;;;;;27.05;10.85;;;;;;;20.96;34.13;102684.81;4983074;28;20271;-72
2021/03/30 09:47:05;;;;;;;27.23;11.48;;;;;;;21.08;32.71;102688.44;4987764;28;20597;-73
2021/03/30 09:49:32;;;;;;;30.05;13.60;;;;;;;21.33;33.59;102690.16;4998442;28;20030;-73
2021/03/30 09:52:00;;;;;;;41.15;14.77;;;;;;;21.25;31.05;102692.63;4985423;28;20042;-74
2021/03/30 09:54:31;;;;;;;32.20;13.07;;;;;;;21.10;31.73;102691.94;4968294;28;20121;-72
2021/03/30 09:57:10;;;;;;;30.73;13.00;;;;;;;21.10;32.46;102683.75;4974164;28;20034;-73
2021/03/30 09:59:35;;;;;;;36.13;13.68;;;;;;;21.37;32.21;102697.13;4977398;28;20046;-73
2021/03/30 10:02:02;;;;;;;33.45;14.18;;;;;;;21.37;31.13;102699.84;4986007;28;20068;-73
2021/03/30 10:04:28;;;;;;;29.80;11.95;;;;;;;21.44;33.54;102692.91;4976726;28;20022;-72
2021/03/30 10:06:54;;;;;;;37.22;13.90;;;;;;;21.32;31.27;102691.16;4982340;28;20033;-72
2021/03/30 10:09:20;;;;;;;27.70;11.98;;;;;;;21.42;33.12;102686.69;4980803;28;20030;-72
2021/03/30 10:11:48;;;;;;;33.10;14.05;;;;;;;21.47;35.33;102684.50;4981307;28;20542;-72
2021/03/30 10:14:18;;;;;;;25.42;11.20;;;;;;;21.50;34.61;102686.97;4984753;28;20117;-72
2021/03/30 10:16:45;;;;;;;33.17;13.10;;;;;;;21.84;32.50;102692.47;4982897;28;20104;-72
2021/03/30 10:19:15;;;;;;;33.15;14.07;;;;;;;21.78;33.99;102686.50;4983874;28;20391;-72
2021/03/30 10:21:42;;;;;;;32.95;13.85;;;;;;;21.84;32.06;102685.16;4989121;28;20463;-74
2021/03/30 10:24:15;;;;;;;33.28;14.20;;;;;;;21.83;33.52;102679.78;4978816;28;22232;-72
2021/03/30 10:26:40;;;;;;;35.00;15.18;;;;;;;22.12;32.29;102681.03;4976926;28;20038;-73
2021/03/30 10:29:13;;;;;;;30.95;14.52;;;;;;;22.07;33.53;102678.69;4984085;28;20538;-72
2021/03/30 10:31:48;;;;;;;34.67;13.65;;;;;;;22.08;31.99;102679.56;4977107;28;20041;-73
2021/03/30 10:34:24;;;;;;;33.72;14.32;;;;;;;21.94;32.45;102675.19;4981322;28;20044;-73
2021/03/30 10:36:52;;;;;;;35.08;15.57;;;;;;;22.24;31.95;102669.09;4987301;28;20034;-72
2021/03/30 10:39:27;;;;;;;32.58;14.85;;;;;;;22.34;30.94;102683.72;4979623;28;20043;-73
2021/03/30 10:42:19;;;;;;;38.92;14.18;;;;;;;22.15;33.02;102675.34;4986833;28;20039;-73
2021/03/30 10:44:47;;;;;;;30.05;13.88;;;;;;;22.21;32.56;102666.63;4983518;28;20081;-73
2021/03/30 10:47:16;;;;;;;30.42;14.43;;;;;;;22.46;30.44;102663.59;4983487;28;20110;-73
2021/03/30 10:49:42;;;;;;;36.35;16.10;;;;;;;22.33;32.46;102657.41;4985191;28;20239;-72
2021/03/30 10:52:17;;;;;;;44.20;17.75;;;;;;;22.19;30.11;102660.41;4987229;28;20078;-72
2021/03/30 10:54:44;;;;;;;40.88;15.30;;;;;;;22.40;30.61;102652.28;4982942;28;20073;-73
2021/03/30 10:57:14;;;;;;;41.28;17.33;;;;;;;22.30;30.72;102649.44;4980288;28;20027;-73
2021/03/30 10:59:41;;;;;;;38.35;15.57;;;;;;;22.32;30.20;102644.72;4985699;28;20523;-73
2021/03/30 11:02:06;;;;;;;41.38;16.83;;;;;;;22.06;30.26;102649.59;5005056;28;20088;-72
2021/03/30 11:04:32;;;;;;;39.15;15.82;;;;;;;22.10;29.94;102637.41;4982125;28;20034;-73
2021/03/30 11:06:57;;;;;;;36.70;15.20;;;;;;;22.36;30.22;102640.69;4985169;28;20042;-73
2021/03/30 11:09:25;;;;;;;36.42;16.00;;;;;;;22.43;30.72;102636.47;4986827;28;20057;-73
2021/03/30 11:11:50;;;;;;;38.83;15.68;;;;;;;22.32;28.37;102638.38;4987140;28;20087;-73
2021/03/30 11:14:15;;;;;;;34.00;14.95;;;;;;;22.29;30.32;102630.41;4980675;28;20597;-73
2021/03/30 11:16:41;;;;;;;40.92;15.90;;;;;;;22.30;29.00;102635.75;4986972;28;20049;-73
2021/03/30 11:19:08;;;;;;;39.38;16.85;;;;;;;22.33;29.19;102634.63;4983431;28;20031;-72
2021/03/30 11:21:34;;;;;;;38.83;14.57;;;;;;;22.44;30.88;102621.78;4986472;28;20026;-73
2021/03/30 11:24:03;;;;;;;35.78;15.60;;;;;;;22.39;29.21;102618.56;4984595;28;20089;-74
2021/03/30 11:26:29;;;;;;;36.92;15.32;;;;;;;22.33;29.22;102621.81;4968311;28;20890;-74
2021/03/30 11:28:55;;;;;;;31.95;14.85;;;;;;;22.46;30.85;102614.31;4984935;28;20041;-75
2021/03/30 11:31:39;;;;;;;33.78;15.75;;;;;;;22.44;28.73;102607.22;4985115;28;20030;-73
2021/03/30 11:34:24;;;;;;;33.78;15.52;;;;;;;22.54;30.57;102606.31;4971346;28;20534;-73
2021/03/30 11:36:58;;;;;;;31.63;14.68;;;;;;;22.65;30.66;102602.66;4985556;28;20034;-73